Helsinki Malmi

EFHF · 新地区, 芬兰

罗盘
风向 的 风向 150° Helsinki Malmi 18/36
风: 10 kt, 3 beaufort

8 kt

6 kt
改变
0 ft 1.000 2.000 3.000 4.000 5.000
Cloud Cloud
FEW 2.100
Cloud Cloud Cloud Cloud
SCT 2.600
METAR EFHK 241220Z 15010KT 9999 FEW021 SCT026 04/M01 Q1015 NOSIG

METAR Helsinki Malmi - EFHF

Helsinki Malmi是,芬兰中的小机场。 该机场位于纬度60,25298和经度25,04518。 该机场有2条跑道: 18/36 和 9/27. 本场的ICAO机场代码为EFHF。 机场在Finland FIR中。

该航空气象观测是针对Helsinki Vantaa Airport在2024年4月24日 15:20, 当地时间进行的。

机场观察

风向为150°,速度为10 kt。

可见度为10 km 或者更多。

有几云在2.100 ft的高度 和 疏云,零星散落的云朵在2.600 ft的高度。 没有观察到天花板。

温度为4 °C,阵风为-2 °C。 露点为-1 °C,相对湿度为70%。 海平面上的气压为1015 hPa (QNH)。

白天

今天,太阳从05:34升起,在21:01降落。 这适用于Helsinki Malmi,世界夏令时可能有所不同。 当地时间与世界标准时间之间的时差为+3 小时。 夏令时目前正在进行中。

公司介绍

在这个机场,你可以找到跳伞中心。 本场上唯一已知的公司是Skyxperience。

体会

到Vliegles.nl去找飞行课程,跳伞和其他飞行体验。 浏览页面,了解Helsinki Malmi附近所有可用的活动。 你也可以使用搜索功能来寻找你所在地附近的特定飞行课程、跳伞或其他飞行体验。

跑道

Id 标题 侧风 逆风 侧风 %
18/36 186°-006° 6 kt 8 kt 59 %
9/27 096°-276° 8 kt 6 kt 81 %

逆风成分最大的方向会被突出显示,并用于横风计算。 这并不一定意味着这个方向在使用。

乌云

2.100 ft FEW 几云
2.600 ft SCT 疏云,零星散落的云朵

温度 & 天气

温度 4 °C
露点 -1 °C
相对湿度 70%
风寒 -2 °C
Kp-index 0 (0-9)

白天

日出
05:34
中午
13:18
日落
21:02 (5:33)

小工具

你想在你的网站上有一个关于Helsinki Malmi的当前航空天气(METAR)的小部件吗?

显示HTML代码
报告变更